Time;durP1;ratioP1;P1;durP2;ratioP2;P2;SDS_P1;SDS_P2;PMS_P1;PMS_P2;Temp;Humidity;BMP_temperature;BMP_pressure;BME280_temperature;BME280_humidity;BME280_pressure;Samples;Min_cycle;Max_cycle;Signal;HPM_P1;HPM_P2
2021/12/20 00:01:07;;;;;;;21.95;4.80;;;6.00;99.90;;;;;;4926202;29;20135;-47
2021/12/20 00:03:34;;;;;;;31.02;4.93;;;6.00;99.90;;;;;;4926474;29;20055;-46
2021/12/20 00:06:00;;;;;;;30.80;5.25;;;5.90;99.90;;;;;;4926652;29;20089;-47
2021/12/20 00:08:27;;;;;;;27.90;4.70;;;5.90;99.90;;;;;;4924773;29;20138;-46
2021/12/20 00:10:53;;;;;;;27.90;4.82;;;6.00;99.90;;;;;;4923942;29;20056;-46
2021/12/20 00:13:19;;;;;;;30.05;4.93;;;5.90;99.90;;;;;;4924417;29;20065;-47
2021/12/20 00:15:45;;;;;;;26.25;4.50;;;5.90;99.90;;;;;;4927309;29;20058;-47
2021/12/20 00:18:10;;;;;;;31.08;5.72;;;6.00;99.90;;;;;;4926625;29;20050;-46
2021/12/20 00:20:36;;;;;;;19.70;4.35;;;5.90;99.90;;;;;;4930270;29;20059;-46
2021/12/20 00:23:04;;;;;;;24.58;4.32;;;5.90;99.90;;;;;;4924247;29;20139;-46
2021/12/20 00:25:30;;;;;;;24.85;4.30;;;5.90;99.90;;;;;;4925970;29;20054;-46
2021/12/20 00:27:56;;;;;;;21.98;4.70;;;5.90;99.90;;;;;;4922573;29;20619;-48
2021/12/20 00:30:22;;;;;;;25.02;5.13;;;5.90;99.90;;;;;;4924990;29;20068;-48
2021/12/20 00:32:48;;;;;;;30.92;5.10;;;5.90;99.90;;;;;;4925402;29;20048;-49
2021/12/20 00:35:17;;;;;;;24.92;4.35;;;5.90;99.90;;;;;;4924958;29;20058;-46
2021/12/20 00:40:28;;;;;;;21.55;4.38;;;5.90;99.90;;;;;;4925308;29;20466;-47
2021/12/20 00:42:58;;;;;;;26.20;6.32;;;5.90;99.90;;;;;;4925041;29;20059;-47
2021/12/20 00:45:27;;;;;;;26.20;4.97;;;5.90;99.90;;;;;;4925535;29;20051;-46
2021/12/20 00:47:53;;;;;;;28.10;4.53;;;5.90;99.90;;;;;;4921377;29;20589;-47
2021/12/20 00:50:20;;;;;;;24.55;4.93;;;5.90;99.90;;;;;;4917202;29;20071;-47
2021/12/20 00:52:48;;;;;;;19.92;4.50;;;5.90;99.90;;;;;;4925996;29;20052;-45
2021/12/20 00:55:16;;;;;;;21.98;3.97;;;5.80;99.90;;;;;;4926048;29;20052;-45
2021/12/20 00:57:47;;;;;;;26.90;5.90;;;5.80;99.90;;;;;;4925917;29;20099;-46
2021/12/20 01:00:16;;;;;;;20.25;4.72;;;5.80;99.90;;;;;;4925010;29;20528;-46
2021/12/20 01:02:42;;;;;;;24.65;4.70;;;5.80;99.90;;;;;;4907433;29;20414;-46
2021/12/20 01:05:08;;;;;;;24.90;3.90;;;5.80;99.90;;;;;;4925960;29;20048;-46
2021/12/20 01:07:34;;;;;;;20.02;4.35;;;5.80;99.90;;;;;;4926355;29;20138;-45
2021/12/20 01:10:04;;;;;;;29.75;5.00;;;5.80;99.90;;;;;;4924456;29;20058;-46
2021/12/20 01:12:42;;;;;;;19.05;4.13;;;5.80;99.90;;;;;;4924771;29;20521;-49
2021/12/20 01:15:10;;;;;;;27.70;4.88;;;5.80;99.90;;;;;;4923595;29;20054;-49
2021/12/20 01:17:36;;;;;;;25.80;4.80;;;5.80;99.90;;;;;;4925633;29;20063;-48
2021/12/20 01:20:04;;;;;;;24.05;5.15;;;5.80;99.90;;;;;;4912915;29;20060;-46
2021/12/20 01:22:30;;;;;;;21.33;4.43;;;5.80;99.90;;;;;;4925044;29;20052;-46
2021/12/20 01:24:56;;;;;;;23.75;5.53;;;5.80;99.90;;;;;;4923715;29;20569;-47
2021/12/20 01:27:21;;;;;;;30.30;4.63;;;5.80;99.90;;;;;;4926118;29;20131;-49
2021/12/20 01:29:47;;;;;;;25.00;4.50;;;5.80;99.90;;;;;;4926183;29;20052;-46
2021/12/20 01:32:13;;;;;;;21.95;4.45;;;5.80;99.90;;;;;;4925419;29;20064;-46
2021/12/20 01:34:39;;;;;;;26.73;4.57;;;5.80;99.90;;;;;;4920998;29;20134;-48
2021/12/20 01:37:04;;;;;;;27.63;4.47;;;5.80;99.90;;;;;;4925329;29;20532;-47
2021/12/20 01:39:30;;;;;;;30.77;4.65;;;5.80;99.90;;;;;;4916455;29;20044;-47
2021/12/20 01:41:56;;;;;;;22.73;3.97;;;5.70;99.90;;;;;;4923112;29;20070;-47
2021/12/20 01:44:22;;;;;;;30.98;5.97;;;5.70;99.90;;;;;;4921696;29;20066;-49
2021/12/20 01:46:48;;;;;;;28.95;4.18;;;5.80;99.90;;;;;;4925134;29;20390;-47
2021/12/20 01:49:16;;;;;;;33.17;4.65;;;5.70;99.90;;;;;;4907480;29;20110;-47
2021/12/20 01:52:00;;;;;;;27.75;5.30;;;5.80;99.90;;;;;;4923568;29;20095;-46
2021/12/20 01:54:26;;;;;;;29.00;5.57;;;5.80;99.90;;;;;;4924986;29;20489;-47
2021/12/20 01:56:52;;;;;;;22.80;4.55;;;5.70;99.90;;;;;;4923251;29;20052;-46
2021/12/20 01:59:18;;;;;;;25.40;5.25;;;5.80;99.90;;;;;;4922783;29;20052;-47
2021/12/20 02:01:44;;;;;;;24.67;5.10;;;5.80;99.90;;;;;;4923326;29;20529;-48
2021/12/20 02:04:11;;;;;;;32.95;5.28;;;5.80;99.90;;;;;;4924746;29;20589;-47
2021/12/20 02:06:44;;;;;;;30.17;4.88;;;5.80;99.90;;;;;;4924553;29;20051;-48
2021/12/20 02:09:17;;;;;;;28.10;4.63;;;5.70;99.90;;;;;;4911499;29;20067;-46
2021/12/20 02:11:46;;;;;;;30.00;4.57;;;5.80;99.90;;;;;;4923664;29;20472;-48
2021/12/20 02:14:14;;;;;;;29.05;5.28;;;5.70;99.90;;;;;;4924806;29;20584;-46
2021/12/20 02:16:41;;;;;;;21.27;4.68;;;5.80;99.90;;;;;;4923388;29;20048;-45
2021/12/20 02:19:13;;;;;;;29.85;5.47;;;5.70;99.90;;;;;;4910801;29;20348;-46
2021/12/20 02:21:40;;;;;;;26.80;5.45;;;5.70;99.90;;;;;;4923327;29;20062;-45
2021/12/20 02:24:06;;;;;;;20.42;3.95;;;5.70;99.90;;;;;;4924333;29;20122;-47
2021/12/20 02:26:32;;;;;;;24.73;4.55;;;5.70;99.90;;;;;;4919417;29;20142;-47
2021/12/20 02:29:03;;;;;;;23.08;4.07;;;5.80;99.90;;;;;;4918986;29;20052;-46
2021/12/20 02:37:16;;;;;;;23.58;3.78;;;5.70;99.90;;;;;;4923823;29;20127;-47
2021/12/20 02:39:42;;;;;;;14.10;3.20;;;5.70;99.90;;;;;;4938509;28;20106;-49
2021/12/20 02:42:11;;;;;;;21.58;4.63;;;5.70;99.90;;;;;;4946156;28;20046;-46
2021/12/20 02:44:37;;;;;;;20.05;3.67;;;5.70;99.90;;;;;;4926817;29;20051;-49
2021/12/20 02:47:06;;;;;;;16.38;3.35;;;5.70;99.90;;;;;;4926408;29;20494;-48
2021/12/20 02:49:33;;;;;;;10.95;2.40;;;5.70;99.90;;;;;;4922631;29;20103;-47
2021/12/20 02:52:05;;;;;;;18.85;3.95;;;5.60;99.90;;;;;;4919194;29;20059;-46
2021/12/20 02:54:31;;;;;;;17.30;2.85;;;5.60;99.90;;;;;;4924718;29;20458;-46
2021/12/20 02:56:57;;;;;;;10.75;2.42;;;5.50;99.90;;;;;;4942269;28;20321;-48
2021/12/20 02:59:23;;;;;;;16.98;3.33;;;5.60;99.90;;;;;;4942982;28;20069;-46
2021/12/20 03:01:53;;;;;;;10.30;2.10;;;5.60;99.90;;;;;;4942418;28;20612;-49
2021/12/20 03:04:19;;;;;;;12.45;3.00;;;5.60;99.90;;;;;;4922883;29;20534;-46
2021/12/20 03:06:51;;;;;;;11.85;2.40;;;5.70;99.90;;;;;;4938275;28;20161;-46
2021/12/20 03:09:20;;;;;;;10.98;1.88;;;5.60;99.90;;;;;;4942109;28;20311;-46
2021/12/20 03:11:48;;;;;;;19.70;3.47;;;5.60;99.90;;;;;;4924566;28;20059;-46
2021/12/20 03:16:43;;;;;;;12.15;2.70;;;5.60;99.90;;;;;;4942842;28;20640;-47
2021/12/20 03:19:09;;;;;;;8.27;2.30;;;5.60;99.90;;;;;;4942940;28;20104;-46
2021/12/20 03:21:34;;;;;;;14.40;2.10;;;5.50;99.90;;;;;;4943460;29;20055;-47
2021/12/20 03:24:00;;;;;;;12.52;2.10;;;5.50;99.90;;;;;;4942236;29;20106;-46
2021/12/20 03:26:26;;;;;;;12.30;3.28;;;5.40;99.90;;;;;;4943139;28;20169;-47
2021/12/20 03:28:51;;;;;;;9.93;2.13;;;5.50;99.90;;;;;;4943387;29;20054;-47
2021/12/20 03:31:18;;;;;;;14.05;2.35;;;5.40;99.90;;;;;;4941362;29;20421;-46
2021/12/20 03:33:44;;;;;;;13.75;2.50;;;5.40;99.90;;;;;;4944527;28;20047;-47
2021/12/20 03:36:10;;;;;;;13.02;2.85;;;5.50;99.90;;;;;;4949830;28;20494;-46
2021/12/20 03:38:36;;;;;;;17.38;2.70;;;5.50;99.90;;;;;;4929030;29;20062;-45
2021/12/20 03:41:02;;;;;;;13.25;2.70;;;5.50;99.90;;;;;;4940275;29;20059;-46
2021/12/20 03:43:31;;;;;;;13.88;2.20;;;5.50;99.90;;;;;;4946849;29;20047;-47
2021/12/20 03:46:02;;;;;;;13.98;2.80;;;5.50;99.90;;;;;;4944385;29;20573;-46
2021/12/20 03:48:28;;;;;;;15.90;2.95;;;5.50;99.90;;;;;;4938216;29;20375;-46
2021/12/20 03:50:56;;;;;;;15.23;2.30;;;5.40;99.90;;;;;;4927968;29;20078;-46
2021/12/20 03:53:21;;;;;;;17.90;3.45;;;5.40;99.90;;;;;;4921239;29;20261;-50
2021/12/20 03:55:47;;;;;;;21.13;3.53;;;5.40;99.90;;;;;;4932053;28;20047;-47
2021/12/20 03:58:13;;;;;;;12.90;3.08;;;5.40;99.90;;;;;;4947239;28;20916;-47
2021/12/20 04:00:39;;;;;;;12.85;2.80;;;5.50;99.90;;;;;;4945311;29;20446;-47
2021/12/20 04:03:10;;;;;;;16.73;3.10;;;5.50;99.90;;;;;;4945407;28;20047;-47
2021/12/20 04:05:36;;;;;;;16.90;2.63;;;5.60;99.90;;;;;;4941978;28;20051;-46
2021/12/20 04:08:02;;;;;;;12.15;2.13;;;5.60;99.90;;;;;;4938006;28;20071;-47
2021/12/20 04:10:27;;;;;;;14.80;2.42;;;5.50;99.90;;;;;;4944207;29;20086;-45
2021/12/20 04:12:53;;;;;;;13.45;2.50;;;5.50;99.90;;;;;;4943794;28;20401;-47
2021/12/20 04:15:19;;;;;;;11.13;2.40;;;5.50;99.90;;;;;;4946010;29;20043;-47
2021/12/20 04:17:45;;;;;;;10.57;2.05;;;5.50;99.90;;;;;;4946266;28;20111;-45
2021/12/20 04:20:11;;;;;;;13.15;2.10;;;5.40;99.90;;;;;;4944120;29;20051;-46
2021/12/20 04:22:37;;;;;;;13.25;2.70;;;5.30;99.90;;;;;;4945219;29;20232;-49
2021/12/20 04:25:03;;;;;;;11.95;2.20;;;5.30;99.90;;;;;;4944783;28;20488;-48
2021/12/20 04:27:29;;;;;;;12.57;2.63;;;5.20;99.90;;;;;;4945144;29;20054;-46
2021/12/20 04:29:55;;;;;;;9.70;2.33;;;5.10;99.90;;;;;;4945564;29;20393;-46
2021/12/20 04:32:21;;;;;;;16.10;2.53;;;5.00;99.90;;;;;;4942158;28;20099;-49
2021/12/20 04:34:52;;;;;;;8.13;1.73;;;5.00;99.90;;;;;;4950327;28;20055;-47
2021/12/20 04:37:18;;;;;;;14.45;2.30;;;4.90;99.90;;;;;;4945771;29;20450;-46
2021/12/20 04:39:44;;;;;;;12.27;2.67;;;4.80;99.90;;;;;;4945140;29;20603;-46
2021/12/20 04:42:11;;;;;;;8.93;1.85;;;4.70;99.90;;;;;;4926968;29;20086;-47
2021/12/20 04:44:37;;;;;;;10.93;1.77;;;4.70;99.90;;;;;;4917322;29;20078;-47
2021/12/20 04:47:03;;;;;;;10.77;2.75;;;4.60;99.90;;;;;;4944497;28;20585;-46
2021/12/20 04:49:28;;;;;;;9.07;1.58;;;4.50;99.90;;;;;;4928283;29;20417;-48
2021/12/20 04:51:55;;;;;;;9.07;2.20;;;4.50;99.90;;;;;;4945604;29;20496;-47
2021/12/20 04:54:21;;;;;;;10.48;2.05;;;4.40;99.90;;;;;;4932556;29;20439;-49
2021/12/20 04:56:47;;;;;;;7.10;1.58;;;4.40;99.90;;;;;;4916790;29;20068;-46
2021/12/20 04:59:13;;;;;;;9.05;1.75;;;4.30;99.90;;;;;;4927548;29;20055;-48
2021/12/20 05:01:39;;;;;;;11.15;1.80;;;4.30;99.90;;;;;;4946443;29;20140;-46
2021/12/20 05:04:05;;;;;;;8.60;1.85;;;4.30;99.90;;;;;;4930090;29;20051;-50
2021/12/20 05:06:32;;;;;;;9.20;2.47;;;4.30;99.90;;;;;;4945818;29;20051;-49
2021/12/20 05:08:58;;;;;;;8.32;1.63;;;4.20;99.90;;;;;;4906371;29;20123;-46
2021/12/20 05:11:25;;;;;;;9.88;1.73;;;4.20;99.90;;;;;;4938801;29;20051;-48
2021/12/20 05:13:53;;;;;;;11.52;2.08;;;4.20;99.90;;;;;;4944751;29;20256;-46
2021/12/20 05:16:18;;;;;;;7.18;1.70;;;4.20;99.90;;;;;;4944899;29;20047;-47
2021/12/20 05:18:44;;;;;;;9.63;2.20;;;4.20;99.90;;;;;;4943219;28;20039;-45
2021/12/20 05:21:10;;;;;;;9.50;2.22;;;4.20;99.90;;;;;;4944716;29;20083;-46
2021/12/20 05:23:35;;;;;;;11.23;1.67;;;4.30;99.90;;;;;;4943790;29;20044;-47
2021/12/20 05:26:01;;;;;;;9.40;1.70;;;4.30;99.90;;;;;;4943756;28;20043;-46
2021/12/20 05:28:27;;;;;;;9.50;1.80;;;4.30;99.90;;;;;;4943612;29;20414;-47
2021/12/20 05:30:58;;;;;;;10.85;2.00;;;4.30;99.90;;;;;;4944945;29;20058;-47
2021/12/20 05:33:24;;;;;;;12.77;2.28;;;4.40;99.90;;;;;;4926885;29;20117;-46
2021/12/20 05:35:50;;;;;;;12.23;2.00;;;4.40;99.90;;;;;;4933763;29;20157;-48
2021/12/20 05:38:16;;;;;;;7.38;1.77;;;4.40;99.90;;;;;;4944052;29;20054;-46
2021/12/20 05:40:42;;;;;;;10.45;1.98;;;4.40;99.90;;;;;;4944999;29;20063;-45
2021/12/20 05:43:08;;;;;;;11.05;1.92;;;4.50;99.90;;;;;;4923396;29;20486;-46
2021/12/20 05:45:34;;;;;;;11.80;2.28;;;4.50;99.90;;;;;;4937241;29;20054;-46
2021/12/20 05:48:00;;;;;;;9.60;1.80;;;4.50;99.90;;;;;;4944695;28;20043;-47
2021/12/20 05:50:27;;;;;;;11.95;2.05;;;4.50;99.90;;;;;;4945364;29;20481;-45
2021/12/20 05:52:53;;;;;;;10.00;1.77;;;4.50;99.90;;;;;;4927648;29;20118;-46
2021/12/20 05:55:19;;;;;;;8.93;1.85;;;4.50;99.90;;;;;;4944757;29;20103;-46
2021/12/20 05:57:45;;;;;;;12.15;2.10;;;4.50;99.90;;;;;;4943194;28;20130;-47
2021/12/20 06:00:15;;;;;;;7.00;1.90;;;4.50;99.90;;;;;;4943407;29;20058;-47
2021/12/20 06:02:44;;;;;;;11.73;2.45;;;4.50;99.90;;;;;;4913915;29;20463;-46
2021/12/20 06:05:11;;;;;;;14.70;2.13;;;4.50;99.90;;;;;;4941910;28;20129;-46
2021/12/20 06:07:39;;;;;;;9.00;1.95;;;4.50;99.90;;;;;;4927389;29;20154;-49
2021/12/20 06:10:07;;;;;;;17.50;2.15;;;4.50;99.90;;;;;;4944161;29;20109;-49
2021/12/20 06:12:32;;;;;;;10.55;1.77;;;4.50;99.90;;;;;;4947526;29;20059;-47
2021/12/20 06:14:58;;;;;;;10.02;1.80;;;4.50;99.90;;;;;;4945509;29;20822;-49
2021/12/20 06:17:24;;;;;;;10.15;2.30;;;4.50;99.90;;;;;;4943473;28;20488;-49
2021/12/20 06:19:50;;;;;;;11.38;1.70;;;4.50;99.90;;;;;;4926420;29;20047;-47
2021/12/20 06:22:15;;;;;;;11.73;2.20;;;4.60;99.90;;;;;;4942636;29;20055;-45
2021/12/20 06:24:41;;;;;;;6.50;1.58;;;4.60;99.90;;;;;;4943374;29;20051;-47
2021/12/20 06:27:07;;;;;;;11.45;1.65;;;4.60;99.90;;;;;;4943903;29;20055;-49
2021/12/20 06:29:33;;;;;;;11.75;1.90;;;4.60;99.90;;;;;;4942486;28;20058;-48
2021/12/20 06:31:59;;;;;;;11.10;1.95;;;4.60;99.90;;;;;;4943204;29;20086;-47
2021/12/20 06:34:25;;;;;;;9.50;2.25;;;4.60;99.90;;;;;;4942610;28;20134;-46
2021/12/20 06:36:51;;;;;;;9.23;1.70;;;4.60;99.90;;;;;;4923561;29;20193;-46
2021/12/20 06:39:17;;;;;;;14.63;2.45;;;4.60;99.90;;;;;;4938484;28;20055;-46
2021/12/20 06:41:44;;;;;;;8.43;1.83;;;4.60;99.90;;;;;;4921644;29;20063;-46
2021/12/20 06:44:10;;;;;;;9.15;1.98;;;4.70;99.90;;;;;;4938370;28;20529;-46
2021/12/20 06:46:40;;;;;;;9.50;2.00;;;4.70;99.90;;;;;;4926123;29;20135;-47
2021/12/20 06:49:09;;;;;;;11.75;2.20;;;4.70;99.90;;;;;;4943282;28;20055;-47
2021/12/20 06:51:42;;;;;;;6.25;1.35;;;4.70;99.90;;;;;;4922668;29;20052;-46
2021/12/20 06:54:09;;;;;;;7.47;2.35;;;4.70;99.90;;;;;;4925709;29;20533;-49
2021/12/20 06:56:35;;;;;;;16.77;2.58;;;4.70;99.90;;;;;;4943366;28;20105;-47
2021/12/20 06:59:02;;;;;;;10.00;1.67;;;4.70;99.90;;;;;;4942248;28;20054;-46
2021/12/20 07:01:27;;;;;;;9.98;1.92;;;4.70;99.90;;;;;;4925628;29;20059;-46
2021/12/20 07:03:53;;;;;;;9.93;1.80;;;4.70;99.90;;;;;;4942626;28;20063;-46
2021/12/20 07:06:19;;;;;;;11.90;1.73;;;4.70;99.90;;;;;;4944285;28;20043;-48
2021/12/20 07:08:45;;;;;;;11.90;2.13;;;4.70;99.90;;;;;;4944649;28;20548;-46
2021/12/20 07:11:11;;;;;;;11.77;2.15;;;4.70;99.90;;;;;;4946346;28;20126;-46
2021/12/20 07:13:37;;;;;;;9.75;2.00;;;4.70;99.90;;;;;;4945791;28;20039;-46
2021/12/20 07:16:03;;;;;;;15.15;2.75;;;4.70;99.90;;;;;;4947140;29;20055;-48
2021/12/20 07:18:29;;;;;;;9.48;2.00;;;4.70;99.90;;;;;;4945874;28;20039;-47
2021/12/20 07:20:55;;;;;;;10.57;1.67;;;4.70;99.90;;;;;;4947290;29;20504;-46
2021/12/20 07:23:22;;;;;;;8.13;1.90;;;4.70;99.90;;;;;;4949737;29;20158;-48
2021/12/20 07:25:49;;;;;;;8.35;1.85;;;4.70;99.90;;;;;;4929403;29;20063;-47
2021/12/20 07:28:15;;;;;;;11.88;2.13;;;4.70;99.90;;;;;;4929190;29;20082;-48
2021/12/20 07:30:41;;;;;;;5.22;1.25;;;4.70;99.90;;;;;;4946358;29;20194;-47
2021/12/20 07:33:09;;;;;;;9.30;1.73;;;4.70;99.90;;;;;;4945601;29;20063;-47
2021/12/20 07:35:34;;;;;;;8.35;1.73;;;4.70;99.90;;;;;;4933168;29;20360;-45
2021/12/20 07:38:02;;;;;;;7.32;2.38;;;4.70;99.90;;;;;;4929403;29;20454;-46
2021/12/20 07:40:28;;;;;;;11.20;2.28;;;4.70;99.90;;;;;;4945711;28;20066;-46
2021/12/20 07:42:55;;;;;;;11.55;2.60;;;4.70;99.90;;;;;;4946245;28;20047;-47
2021/12/20 07:45:21;;;;;;;11.13;1.92;;;4.80;99.90;;;;;;4946491;28;20528;-45
2021/12/20 07:47:48;;;;;;;14.85;5.88;;;4.80;99.90;;;;;;4928600;29;20059;-48
2021/12/20 07:50:16;;;;;;;13.75;5.47;;;4.80;99.90;;;;;;4945874;28;20065;-46
2021/12/20 07:52:42;;;;;;;10.70;4.75;;;4.80;99.90;;;;;;4945632;28;20532;-46
2021/12/20 07:55:08;;;;;;;19.63;3.10;;;4.80;99.90;;;;;;4944231;28;20560;-49
2021/12/20 07:57:34;;;;;;;14.95;3.47;;;4.90;99.90;;;;;;4945023;28;20509;-46
2021/12/20 08:00:00;;;;;;;13.15;2.65;;;4.90;99.90;;;;;;4945974;28;20053;-46
2021/12/20 08:02:25;;;;;;;11.25;1.95;;;4.90;99.90;;;;;;4945446;28;20055;-46
2021/12/20 08:04:51;;;;;;;9.82;2.10;;;4.90;99.90;;;;;;4928212;29;20197;-46
2021/12/20 08:07:21;;;;;;;9.57;2.35;;;4.90;99.90;;;;;;4940570;28;20152;-46
2021/12/20 08:09:49;;;;;;;9.82;2.55;;;5.00;99.90;;;;;;4946557;28;20146;-46
2021/12/20 08:12:18;;;;;;;13.48;2.30;;;5.00;99.90;;;;;;4942968;28;20062;-47
2021/12/20 08:14:44;;;;;;;9.32;2.05;;;5.00;99.90;;;;;;4940236;28;20051;-47
2021/12/20 08:17:10;;;;;;;11.30;2.78;;;5.00;99.90;;;;;;4942805;28;20600;-46
2021/12/20 08:19:36;;;;;;;6.55;2.08;;;5.10;99.90;;;;;;4945105;28;20043;-47
2021/12/20 08:22:02;;;;;;;5.47;1.58;;;5.10;99.90;;;;;;4944393;28;20039;-46
2021/12/20 08:24:27;;;;;;;12.05;2.60;;;5.10;99.90;;;;;;4944546;28;20467;-46
2021/12/20 08:26:53;;;;;;;6.60;2.00;;;5.10;99.90;;;;;;4943429;28;20051;-46
2021/12/20 08:29:19;;;;;;;10.45;2.20;;;5.10;99.90;;;;;;4931176;29;20051;-46
2021/12/20 08:31:45;;;;;;;12.45;2.40;;;5.10;99.90;;;;;;4938092;28;20051;-46
2021/12/20 08:34:10;;;;;;;9.00;2.28;;;5.10;99.90;;;;;;4945606;28;20117;-46
2021/12/20 08:36:36;;;;;;;9.05;2.08;;;5.20;99.90;;;;;;4942432;28;20043;-46
2021/12/20 08:39:03;;;;;;;10.55;2.28;;;5.20;99.90;;;;;;4942240;28;20418;-47
2021/12/20 08:41:28;;;;;;;12.38;2.65;;;5.20;99.90;;;;;;4945665;28;20051;-46
2021/12/20 08:43:54;;;;;;;13.38;2.50;;;5.20;99.90;;;;;;4943115;28;20865;-49
2021/12/20 08:46:20;;;;;;;8.27;2.13;;;5.20;99.90;;;;;;4946422;28;20102;-48
2021/12/20 08:48:52;;;;;;;14.60;2.50;;;5.20;99.90;;;;;;4945326;28;20517;-48
2021/12/20 08:51:18;;;;;;;14.13;3.83;;;5.30;99.90;;;;;;4927502;29;20063;-49
2021/12/20 08:53:43;;;;;;;8.93;2.67;;;5.30;99.90;;;;;;4924783;29;20747;-47
2021/12/20 08:56:11;;;;;;;12.45;2.50;;;5.30;99.90;;;;;;4944113;28;20110;-46
2021/12/20 08:58:37;;;;;;;10.38;2.88;;;5.30;99.90;;;;;;4944413;28;20129;-46
2021/12/20 09:01:03;;;;;;;8.23;1.95;;;5.30;99.90;;;;;;4944991;28;20051;-46
2021/12/20 09:03:28;;;;;;;7.65;3.03;;;5.30;99.90;;;;;;4926585;29;20050;-47
2021/12/20 09:05:54;;;;;;;9.35;2.67;;;5.30;99.90;;;;;;4914254;29;20097;-46
2021/12/20 09:08:22;;;;;;;14.60;3.47;;;5.30;99.90;;;;;;4948779;28;20278;-46
2021/12/20 09:10:49;;;;;;;11.82;3.05;;;5.30;99.90;;;;;;4941655;29;20050;-46
2021/12/20 09:13:15;;;;;;;16.70;4.35;;;5.30;99.90;;;;;;4923157;29;20102;-46
2021/12/20 09:15:41;;;;;;;10.82;4.18;;;5.20;99.90;;;;;;4924271;28;20055;-47
2021/12/20 09:18:11;;;;;;;9.07;2.80;;;5.20;99.90;;;;;;4941734;29;20043;-47
2021/12/20 09:20:37;;;;;;;12.30;2.70;;;5.30;99.90;;;;;;4944199;29;20446;-46
2021/12/20 09:23:06;;;;;;;9.60;2.60;;;5.20;99.90;;;;;;4944013;29;20540;-46
2021/12/20 09:25:33;;;;;;;7.90;2.55;;;5.20;99.90;;;;;;4923371;29;20065;-49
2021/12/20 09:28:00;;;;;;;15.75;2.45;;;5.10;99.90;;;;;;4943329;29;20538;-47
2021/12/20 09:30:28;;;;;;;9.93;2.83;;;5.20;99.90;;;;;;4943874;29;20577;-46
2021/12/20 09:32:54;;;;;;;10.18;2.53;;;5.10;99.90;;;;;;4941547;28;20068;-46
2021/12/20 09:35:21;;;;;;;11.27;3.13;;;5.20;99.90;;;;;;4924966;29;20059;-49
2021/12/20 09:37:50;;;;;;;10.30;2.40;;;5.10;99.90;;;;;;4943874;29;20051;-46
2021/12/20 09:40:17;;;;;;;15.18;2.85;;;5.10;99.90;;;;;;4926590;29;20047;-47
2021/12/20 09:42:53;;;;;;;10.60;2.78;;;5.20;99.90;;;;;;4944271;29;20058;-47
2021/12/20 09:45:21;;;;;;;15.82;3.58;;;5.10;99.90;;;;;;4944797;29;20051;-47
2021/12/20 09:47:47;;;;;;;11.23;2.58;;;5.10;99.90;;;;;;4943792;29;20051;-47
2021/12/20 09:50:13;;;;;;;12.75;3.08;;;5.10;99.90;;;;;;4943814;29;20465;-46
2021/12/20 09:52:42;;;;;;;14.30;3.47;;;5.10;99.90;;;;;;4945006;29;20059;-46
2021/12/20 09:55:08;;;;;;;11.90;3.13;;;5.10;99.90;;;;;;4941694;29;20051;-46
2021/12/20 09:57:36;;;;;;;12.95;3.08;;;5.10;99.90;;;;;;4945960;29;20063;-46
2021/12/20 10:00:05;;;;;;;15.63;3.70;;;5.10;99.90;;;;;;4946871;29;20134;-48
2021/12/20 10:02:32;;;;;;;18.60;3.83;;;5.20;99.90;;;;;;4943905;29;20065;-49
2021/12/20 10:04:59;;;;;;;15.63;3.75;;;5.20;99.90;;;;;;4943965;28;20070;-48
2021/12/20 10:07:26;;;;;;;15.63;4.28;;;5.20;99.90;;;;;;4920477;29;20051;-46
2021/12/20 10:09:52;;;;;;;11.85;3.35;;;5.20;99.90;;;;;;4942972;28;20051;-46
2021/12/20 10:12:24;;;;;;;20.92;4.18;;;5.20;99.90;;;;;;4923058;29;20062;-46
2021/12/20 10:15:10;;;;;;;17.38;3.78;;;5.20;99.90;;;;;;4942022;29;20047;-47
2021/12/20 10:17:55;;;;;;;19.48;3.53;;;5.20;99.90;;;;;;4932313;29;20054;-47
2021/12/20 10:20:30;;;;;;;16.52;3.30;;;5.30;99.90;;;;;;4943831;29;20055;-46
2021/12/20 10:23:23;;;;;;;15.60;3.45;;;5.20;99.90;;;;;;4922686;29;20059;-47
2021/12/20 10:25:57;;;;;;;15.45;3.88;;;5.30;99.90;;;;;;4939810;29;20494;-46
2021/12/20 10:28:26;;;;;;;19.52;4.00;;;5.20;99.90;;;;;;4920158;28;20054;-46
2021/12/20 10:31:06;;;;;;;21.73;3.22;;;5.30;99.90;;;;;;4943807;29;20504;-46
2021/12/20 10:33:31;;;;;;;18.33;3.22;;;5.30;99.90;;;;;;4944804;28;20051;-47
2021/12/20 10:36:00;;;;;;;17.15;3.00;;;5.30;99.90;;;;;;4926431;29;20429;-46
2021/12/20 10:38:33;;;;;;;16.80;3.30;;;5.30;99.90;;;;;;4942930;29;20063;-47
2021/12/20 10:41:02;;;;;;;14.40;3.03;;;5.30;99.90;;;;;;4923248;29;20059;-48
2021/12/20 10:43:35;;;;;;;15.07;4.50;;;5.30;99.90;;;;;;4944230;28;20118;-46
2021/12/20 10:46:31;;;;;;;17.73;4.00;;;5.30;99.90;;;;;;4927860;29;20061;-47
2021/12/20 10:49:05;;;;;;;18.08;3.58;;;5.30;99.90;;;;;;4875434;29;20057;-46
2021/12/20 10:51:37;;;;;;;18.45;3.38;;;5.30;99.90;;;;;;4875507;29;20218;-47
2021/12/20 10:54:09;;;;;;;20.02;3.55;;;5.30;99.90;;;;;;4876984;29;20479;-46
2021/12/20 10:57:02;;;;;;;19.67;4.05;;;5.30;99.90;;;;;;4886351;29;20056;-46
2021/12/20 10:59:31;;;;;;;18.70;3.88;;;5.30;99.90;;;;;;4887734;29;20080;-47
2021/12/20 11:04:36;;;;;;;16.85;3.33;;;5.40;99.90;;;;;;4881374;29;20049;-47
2021/12/20 11:09:44;;;;;;;26.60;5.28;;;5.40;99.90;;;;;;4892626;29;20053;-47
2021/12/20 11:12:13;;;;;;;28.85;7.00;;;5.40;99.90;;;;;;4887663;29;20075;-48
2021/12/20 11:14:48;;;;;;;26.35;5.28;;;5.40;99.90;;;;;;4887343;29;20580;-46
2021/12/20 11:17:18;;;;;;;19.17;4.28;;;5.40;99.90;;;;;;4870143;29;20053;-47
2021/12/20 11:19:45;;;;;;;19.40;4.70;;;5.50;99.90;;;;;;4881775;29;20072;-46
2021/12/20 11:22:16;;;;;;;24.80;5.07;;;5.50;99.90;;;;;;4870074;29;20056;-47
2021/12/20 11:24:51;;;;;;;26.13;5.32;;;5.50;99.90;;;;;;4886102;29;20502;-48
2021/12/20 11:27:31;;;;;;;28.15;5.93;;;5.50;99.90;;;;;;4923810;29;20054;-48
2021/12/20 11:30:04;;;;;;;25.08;5.30;;;5.50;99.90;;;;;;4945977;29;20055;-46
2021/12/20 11:32:30;;;;;;;24.02;5.88;;;5.60;99.90;;;;;;4928854;29;20059;-47
2021/12/20 11:34:56;;;;;;;27.33;6.20;;;5.60;99.90;;;;;;4946732;29;20529;-47
2021/12/20 11:37:27;;;;;;;26.33;6.22;;;5.60;99.90;;;;;;4946492;29;20063;-49
2021/12/20 11:39:57;;;;;;;21.25;4.90;;;5.60;99.90;;;;;;4924822;29;20066;-46
2021/12/20 11:42:24;;;;;;;30.77;7.07;;;5.60;99.90;;;;;;4918706;29;20047;-47
2021/12/20 11:44:59;;;;;;;30.35;6.28;;;5.60;99.90;;;;;;4927370;29;20059;-49
2021/12/20 11:47:44;;;;;;;29.92;6.30;;;5.70;99.90;;;;;;4927828;29;20051;-48
2021/12/20 11:50:14;;;;;;;28.60;5.53;;;5.70;99.90;;;;;;4927126;29;20048;-47
2021/12/20 11:52:42;;;;;;;22.55;5.25;;;5.70;99.90;;;;;;4925574;29;20409;-46
2021/12/20 11:55:21;;;;;;;24.13;5.07;;;5.70;99.90;;;;;;4926690;29;20051;-47
2021/12/20 11:57:48;;;;;;;25.42;5.90;;;5.70;99.90;;;;;;4923157;29;20143;-47
2021/12/20 12:00:22;;;;;;;31.63;6.75;;;5.70;99.90;;;;;;4924700;29;20070;-47
2021/12/20 12:02:50;;;;;;;25.80;5.35;;;5.70;99.90;;;;;;4924993;29;20051;-47
2021/12/20 12:05:34;;;;;;;36.92;6.18;;;5.70;99.90;;;;;;4926190;29;20051;-48
2021/12/20 12:08:28;;;;;;;27.30;4.68;;;5.80;99.90;;;;;;4923130;29;20074;-47
2021/12/20 12:11:17;;;;;;;25.33;6.38;;;5.80;99.90;;;;;;4945090;29;20194;-46
2021/12/20 12:16:30;;;;;;;25.10;5.97;;;5.80;99.90;;;;;;4895818;29;20574;-46
2021/12/20 12:19:02;;;;;;;20.98;5.57;;;5.80;99.90;;;;;;4898646;29;20585;-48
2021/12/20 12:21:37;;;;;;;22.05;5.35;;;5.70;99.90;;;;;;4869291;29;20052;-47
2021/12/20 12:24:11;;;;;;;26.15;7.50;;;5.80;99.90;;;;;;4900719;29;20064;-49
2021/12/20 12:26:39;;;;;;;26.95;9.30;;;5.80;99.90;;;;;;4883150;29;20541;-47
2021/12/20 12:29:07;;;;;;;29.67;6.28;;;5.70;99.90;;;;;;4898886;29;20541;-48
2021/12/20 12:31:51;;;;;;;23.90;4.60;;;5.80;99.90;;;;;;4905344;29;20119;-48
2021/12/20 12:34:17;;;;;;;21.80;5.03;;;5.80;99.90;;;;;;4904668;29;20056;-47
2021/12/20 12:36:47;;;;;;;34.50;6.22;;;5.80;99.90;;;;;;4903928;29;20091;-48
2021/12/20 12:39:28;;;;;;;26.95;4.72;;;5.80;99.90;;;;;;4903523;29;20047;-46
2021/12/20 12:42:01;;;;;;;21.08;4.93;;;5.70;99.90;;;;;;4902188;29;20094;-47
2021/12/20 12:44:31;;;;;;;23.65;4.32;;;5.70;99.90;;;;;;4900614;29;20582;-46
2021/12/20 12:47:04;;;;;;;16.75;4.00;;;5.80;99.90;;;;;;4900682;29;20053;-46
2021/12/20 12:49:36;;;;;;;18.65;4.53;;;5.80;99.90;;;;;;4879495;29;20129;-47
2021/12/20 12:52:16;;;;;;;21.48;4.15;;;5.80;99.90;;;;;;4942598;29;20082;-49
2021/12/20 12:54:45;;;;;;;20.63;5.20;;;5.90;99.90;;;;;;4944104;29;20563;-48
2021/12/20 12:57:11;;;;;;;17.77;3.92;;;5.90;99.90;;;;;;4943885;29;20082;-47
2021/12/20 12:59:40;;;;;;;21.50;5.13;;;5.90;99.90;;;;;;4938215;28;20047;-49
2021/12/20 13:02:19;;;;;;;22.88;4.30;;;5.90;99.90;;;;;;4944679;28;20098;-48
2021/12/20 13:05:00;;;;;;;20.83;4.45;;;5.90;99.90;;;;;;4923486;28;20055;-46
2021/12/20 13:07:53;;;;;;;18.40;5.63;;;6.00;99.90;;;;;;4944140;28;20142;-49
2021/12/20 13:10:29;;;;;;;30.48;5.57;;;6.00;99.90;;;;;;4916689;29;20417;-48
2021/12/20 13:13:06;;;;;;;24.02;5.20;;;6.00;99.90;;;;;;4929015;29;20050;-47